Time;durP1;ratioP1;P1;durP2;ratioP2;P2;SDS_P1;SDS_P2;PMS_P1;PMS_P2;Temp;Humidity;BMP_temperature;BMP_pressure;BME280_temperature;BME280_humidity;BME280_pressure;Samples;Min_cycle;Max_cycle;Signal;HPM_P1;HPM_P2
2022/11/24 00:00:50;;;;;;;9.52;5.13;;;;;;;-0.15;100.00;99252.97;5029626;28;20053;-39
2022/11/24 00:03:16;;;;;;;9.07;5.18;;;;;;;0.03;100.00;99279.41;5028782;28;20037;-40
2022/11/24 00:05:42;;;;;;;13.73;5.82;;;;;;;0.02;100.00;99278.53;5011317;28;20131;-41
2022/11/24 00:08:08;;;;;;;11.25;5.85;;;;;;;0.06;100.00;99290.47;5028621;28;20606;-40
2022/11/24 00:10:34;;;;;;;13.43;5.57;;;;;;;0.07;100.00;99286.22;5029619;28;20045;-40
2022/11/24 00:13:00;;;;;;;10.13;5.40;;;;;;;0.07;100.00;99291.31;5030183;28;20044;-39
2022/11/24 00:15:26;;;;;;;9.98;5.60;;;;;;;0.06;100.00;99287.91;5026933;28;20079;-40
2022/11/24 00:17:52;;;;;;;13.75;5.97;;;;;;;0.03;100.00;99280.25;5029317;28;20042;-41
2022/11/24 00:20:18;;;;;;;10.75;5.50;;;;;;;-0.27;100.00;99240.19;5028715;28;20056;-42
2022/11/24 00:22:43;;;;;;;12.82;5.93;;;;;;;0.05;100.00;99293.03;5029374;28;20037;-40
2022/11/24 00:25:09;;;;;;;10.48;6.18;;;;;;;-0.12;100.00;99273.44;5006573;28;20104;-42
2022/11/24 00:27:35;;;;;;;10.70;5.55;;;;;;;0.03;100.00;99290.47;5021826;28;20683;-41
2022/11/24 00:30:01;;;;;;;10.27;5.50;;;;;;;0.02;100.00;99293.88;5028112;28;20022;-40
2022/11/24 00:32:29;;;;;;;11.43;5.38;;;;;;;-0.02;100.00;99303.25;5024447;28;20042;-41
2022/11/24 00:34:55;;;;;;;11.68;5.97;;;;;;;-0.03;100.00;99306.66;5023816;28;20072;-40
2022/11/24 00:37:21;;;;;;;12.43;5.50;;;;;;;0.02;100.00;99304.09;5029248;28;20053;-45
2022/11/24 00:39:47;;;;;;;13.68;5.75;;;;;;;-0.01;100.00;99309.22;5010909;28;20412;-40
2022/11/24 00:42:13;;;;;;;11.40;5.65;;;;;;;-0.03;100.00;99310.91;5027980;28;20041;-40
2022/11/24 00:44:39;;;;;;;9.80;6.05;;;;;;;-0.10;100.00;99301.50;5045268;28;20058;-40
2022/11/24 00:47:05;;;;;;;11.45;5.50;;;;;;;-0.20;100.00;99284.47;5008553;28;20057;-39
2022/11/24 00:49:31;;;;;;;10.80;5.88;;;;;;;-0.04;100.00;99314.31;5028620;28;20045;-40
2022/11/24 00:51:57;;;;;;;14.02;5.88;;;;;;;-0.04;100.00;99316.84;5029537;28;20498;-39
2022/11/24 00:54:22;;;;;;;11.95;5.65;;;;;;;-0.08;100.00;99303.22;4993752;28;20053;-41
2022/11/24 00:56:48;;;;;;;11.23;5.85;;;;;;;-0.01;100.00;99316.88;5029331;28;20045;-41
2022/11/24 00:59:14;;;;;;;11.35;5.97;;;;;;;-0.02;100.00;99317.72;5028087;28;20086;-41
2022/11/24 01:01:41;;;;;;;10.77;5.70;;;;;;;0.01;100.00;99315.16;5028340;28;20052;-40
2022/11/24 01:04:07;;;;;;;12.45;6.47;;;;;;;0.00;100.00;99316.03;5025264;28;20105;-40
2022/11/24 01:06:34;;;;;;;12.45;6.10;;;;;;;0.00;100.00;99327.09;5029823;28;20509;-39
2022/11/24 01:09:00;;;;;;;11.63;6.10;;;;;;;0.00;100.00;99333.94;5028188;28;20450;-40
2022/11/24 01:11:28;;;;;;;13.20;6.68;;;;;;;-0.04;100.00;99334.75;5027837;28;20041;-40
2022/11/24 01:13:57;;;;;;;12.43;5.75;;;;;;;-0.09;100.00;99334.75;5012910;28;20049;-40
2022/11/24 01:16:29;;;;;;;11.35;5.75;;;;;;;-0.12;100.00;99333.88;5029704;28;20048;-40
2022/11/24 01:18:55;;;;;;;13.15;5.85;;;;;;;-0.15;100.00;99339.81;5027881;28;20056;-41
2022/11/24 01:21:22;;;;;;;11.07;6.03;;;;;;;-0.12;100.00;99339.00;5024976;28;20153;-40
2022/11/24 01:23:48;;;;;;;13.40;6.68;;;;;;;-0.16;100.00;99335.56;5002694;28;20037;-41
2022/11/24 01:26:16;;;;;;;12.23;6.05;;;;;;;-0.14;100.00;99338.97;5028530;28;20041;-40
2022/11/24 01:28:42;;;;;;;13.13;5.90;;;;;;;-0.25;100.00;99324.47;5029349;28;20029;-42
2022/11/24 01:31:08;;;;;;;11.32;5.95;;;;;;;-0.16;100.00;99337.28;5027599;28;20184;-39
2022/11/24 01:33:35;;;;;;;13.60;5.88;;;;;;;-0.19;100.00;99353.44;5025669;28;20120;-40
2022/11/24 01:36:01;;;;;;;12.10;5.60;;;;;;;-0.21;99.19;99351.75;5028234;28;20191;-39
2022/11/24 01:38:28;;;;;;;12.63;6.10;;;;;;;-0.54;98.27;99291.19;5027510;28;20040;-41
2022/11/24 01:41:02;;;;;;;10.48;5.32;;;;;;;-0.24;97.72;99349.16;5027093;28;20421;-41
2022/11/24 01:43:28;;;;;;;12.52;5.65;;;;;;;-0.24;97.90;99341.50;5025925;28;20061;-41
2022/11/24 01:45:54;;;;;;;15.50;5.97;;;;;;;-0.25;97.71;99348.31;5027588;28;20083;-40
2022/11/24 01:48:27;;;;;;;12.85;5.65;;;;;;;-0.58;97.20;99295.44;5009800;28;20041;-41
2022/11/24 01:51:07;;;;;;;10.90;5.57;;;;;;;-0.24;96.71;99356.81;5024696;28;20095;-41
2022/11/24 01:53:33;;;;;;;14.93;6.18;;;;;;;-0.39;95.76;99341.44;5010703;28;20060;-40
2022/11/24 01:55:59;;;;;;;12.88;6.20;;;;;;;-0.29;95.47;99359.38;5026003;28;20049;-40
2022/11/24 01:58:28;;;;;;;10.23;5.70;;;;;;;-0.31;94.85;99366.16;5026194;28;20133;-41
2022/11/24 02:00:55;;;;;;;12.07;5.90;;;;;;;-0.30;94.64;99364.47;5025902;28;20048;-41
2022/11/24 02:03:26;;;;;;;13.88;6.53;;;;;;;-0.32;94.11;99363.63;5026857;28;20579;-40
2022/11/24 02:06:03;;;;;;;13.23;6.03;;;;;;;-0.37;93.75;99368.72;5026288;28;20103;-40
2022/11/24 02:09:08;;;;;;;13.75;5.90;;;;;;;-0.35;94.00;99384.03;5026368;28;20069;-41
2022/11/24 02:11:36;;;;;;;14.38;6.25;;;;;;;-0.52;94.20;99351.59;5021168;28;20095;-41
2022/11/24 02:14:04;;;;;;;11.90;5.85;;;;;;;-0.33;94.35;99380.66;5027206;28;20033;-40
2022/11/24 02:16:31;;;;;;;12.80;6.05;;;;;;;-0.32;94.26;99382.34;5028016;28;20052;-40
2022/11/24 02:18:57;;;;;;;15.77;5.50;;;;;;;-0.30;94.15;99379.78;5010478;28;20056;-40
2022/11/24 02:21:23;;;;;;;11.82;5.82;;;;;;;-0.29;94.03;99386.59;5025388;28;20042;-39
2022/11/24 02:23:56;;;;;;;15.05;6.43;;;;;;;-0.29;93.72;99386.59;5026157;28;20042;-42
2022/11/24 02:26:41;;;;;;;13.57;6.50;;;;;;;-0.34;92.94;99383.19;5026328;28;20147;-41
2022/11/24 02:29:08;;;;;;;12.30;5.97;;;;;;;-0.39;93.04;99387.41;5017410;28;20057;-40
2022/11/24 02:31:34;;;;;;;13.80;6.63;;;;;;;-0.44;92.65;99388.25;5023333;28;20041;-40
2022/11/24 02:34:00;;;;;;;12.70;6.68;;;;;;;-0.60;92.62;99362.63;5030207;28;20558;-41
2022/11/24 02:36:26;;;;;;;14.80;6.82;;;;;;;-0.48;92.79;99381.44;4997143;28;20049;-41
2022/11/24 02:38:51;;;;;;;14.07;6.55;;;;;;;-0.61;92.05;99364.34;5011500;28;20156;-41
2022/11/24 02:41:19;;;;;;;10.82;5.55;;;;;;;-0.48;92.28;99389.09;5013038;28;20041;-40
2022/11/24 02:43:48;;;;;;;15.38;6.32;;;;;;;-0.47;92.34;99392.47;5029638;28;20061;-40
2022/11/24 02:46:14;;;;;;;13.10;6.10;;;;;;;-0.44;92.41;99407.81;5030513;28;20531;-40
2022/11/24 02:48:40;;;;;;;15.27;7.00;;;;;;;-0.46;92.21;99397.59;5032562;28;20034;-41
2022/11/24 02:51:06;;;;;;;18.17;6.90;;;;;;;-0.40;92.16;99413.78;5023435;28;20037;-41
2022/11/24 02:53:31;;;;;;;13.90;6.72;;;;;;;-0.42;91.85;99398.50;5030162;28;20140;-40
2022/11/24 02:55:57;;;;;;;14.07;6.78;;;;;;;-0.43;91.68;99402.75;5029315;28;20037;-40
2022/11/24 02:58:23;;;;;;;10.57;6.05;;;;;;;-0.43;91.91;99399.31;5030134;28;20425;-40
2022/11/24 03:00:49;;;;;;;12.63;6.60;;;;;;;-0.46;91.55;99412.91;5029708;28;20429;-41
2022/11/24 03:03:15;;;;;;;21.45;7.15;;;;;;;-0.48;91.35;99401.00;5029594;28;20037;-40
2022/11/24 03:05:41;;;;;;;15.73;7.00;;;;;;;-0.49;91.34;99400.16;5029271;28;20033;-40
2022/11/24 03:08:07;;;;;;;14.50;6.63;;;;;;;-0.49;91.52;99397.59;5030870;28;20045;-41
2022/11/24 03:10:33;;;;;;;14.98;6.75;;;;;;;-0.49;91.41;99404.41;5039730;28;20037;-41
2022/11/24 03:12:58;;;;;;;16.70;7.13;;;;;;;-0.49;91.59;99407.81;5031627;28;20493;-40
2022/11/24 03:15:24;;;;;;;15.65;7.82;;;;;;;-0.49;91.34;99407.81;5027271;28;20105;-41
2022/11/24 03:17:55;;;;;;;15.60;7.40;;;;;;;-0.66;90.94;99383.03;5030270;28;20045;-40
2022/11/24 03:20:21;;;;;;;22.40;8.23;;;;;;;-0.51;91.13;99404.38;5028677;28;20047;-40
2022/11/24 03:22:47;;;;;;;18.92;7.35;;;;;;;-0.51;91.18;99414.59;5029622;28;20045;-40
2022/11/24 03:25:13;;;;;;;16.10;6.68;;;;;;;-0.53;91.04;99412.88;5031349;28;20057;-40
2022/11/24 03:27:39;;;;;;;15.45;7.93;;;;;;;-0.68;90.99;99397.50;5029986;28;20063;-41
2022/11/24 03:30:06;;;;;;;14.85;6.50;;;;;;;-0.71;90.96;99393.22;5027799;28;20034;-42
2022/11/24 03:32:32;;;;;;;15.50;6.45;;;;;;;-0.68;91.29;99389.84;5028578;28;20045;-41
2022/11/24 03:34:57;;;;;;;14.07;6.80;;;;;;;-0.52;90.75;99425.66;5027506;28;20042;-39
2022/11/24 03:37:24;;;;;;;13.98;6.32;;;;;;;-0.68;90.40;99392.38;5028239;28;20560;-39
2022/11/24 03:39:50;;;;;;;12.77;6.43;;;;;;;-0.57;90.32;99414.56;5030218;28;20037;-39
2022/11/24 03:42:16;;;;;;;16.70;6.90;;;;;;;-0.63;90.30;99414.50;5042765;28;20438;-41
2022/11/24 03:44:42;;;;;;;13.85;7.05;;;;;;;-0.57;90.19;99422.22;5028563;28;20069;-40
2022/11/24 03:47:09;;;;;;;15.48;6.88;;;;;;;-0.58;89.63;99424.78;5006910;28;20041;-39
2022/11/24 03:49:35;;;;;;;12.50;6.25;;;;;;;-0.61;89.16;99425.59;5029221;28;20080;-40
2022/11/24 03:52:01;;;;;;;16.70;6.90;;;;;;;-0.61;88.86;99430.69;5028918;28;20056;-42
2022/11/24 03:54:27;;;;;;;14.55;6.53;;;;;;;-0.93;88.42;99378.59;5027652;28;20041;-40
2022/11/24 03:56:53;;;;;;;14.80;6.43;;;;;;;-0.65;88.33;99436.63;5030499;28;20091;-40
2022/11/24 03:59:19;;;;;;;13.93;6.70;;;;;;;-0.68;87.68;99433.22;5029098;28;20060;-42
2022/11/24 04:01:45;;;;;;;17.50;6.10;;;;;;;-0.69;87.64;99437.47;5026984;28;20041;-41
2022/11/24 04:04:11;;;;;;;16.27;6.22;;;;;;;-0.75;87.42;99436.56;5026099;28;20053;-42
2022/11/24 04:06:38;;;;;;;16.45;6.72;;;;;;;-0.81;86.86;99427.16;5011600;28;20040;-40
2022/11/24 04:09:04;;;;;;;17.00;7.53;;;;;;;-0.71;86.50;99445.94;5030271;28;20147;-39
2022/11/24 04:14:14;;;;;;;15.77;6.63;;;;;;;-0.67;86.49;99447.66;5036182;28;20091;-38
2022/11/24 04:16:40;;;;;;;13.52;6.90;;;;;;;-0.64;86.13;99447.72;5032074;28;20050;-42
2022/11/24 04:19:07;;;;;;;15.70;7.43;;;;;;;-0.65;86.03;99446.84;5031915;28;20047;-44
2022/11/24 04:21:33;;;;;;;14.68;6.85;;;;;;;-0.67;85.67;99453.63;4998310;28;20536;-42
2022/11/24 04:23:59;;;;;;;13.90;7.03;;;;;;;-0.70;85.73;99450.22;5027665;28;20474;-40
2022/11/24 04:26:26;;;;;;;14.55;5.72;;;;;;;-1.04;85.58;99403.19;5025982;28;20065;-41
2022/11/24 04:28:52;;;;;;;14.27;5.85;;;;;;;-0.80;85.50;99458.66;5023106;28;20041;-44
2022/11/24 04:31:18;;;;;;;12.85;5.50;;;;;;;-0.86;85.07;99462.88;5011594;28;20041;-41
2022/11/24 04:33:44;;;;;;;9.18;4.55;;;;;;;-0.93;84.57;99463.66;5005444;28;20071;-42
2022/11/24 04:36:10;;;;;;;9.63;4.90;;;;;;;-1.02;84.22;99467.81;5024309;28;20560;-43
2022/11/24 04:38:36;;;;;;;9.85;4.93;;;;;;;-1.05;83.86;99476.31;5023464;28;20068;-40
2022/11/24 04:41:02;;;;;;;11.93;5.82;;;;;;;-1.36;83.49;99421.63;5022883;28;20037;-40
2022/11/24 04:43:29;;;;;;;13.13;4.60;;;;;;;-1.03;83.40;99479.72;5029666;28;20041;-39
2022/11/24 04:45:55;;;;;;;10.45;5.03;;;;;;;-0.99;83.33;99481.44;5021062;28;20045;-44
2022/11/24 04:48:21;;;;;;;8.98;4.60;;;;;;;-0.99;82.73;99480.59;5029908;28;20096;-40
2022/11/24 04:50:47;;;;;;;8.25;4.38;;;;;;;-1.01;82.45;99475.50;5028100;28;20037;-40
2022/11/24 04:53:13;;;;;;;14.95;4.78;;;;;;;-0.96;81.79;99480.63;5030492;28;20038;-40
2022/11/24 04:55:39;;;;;;;8.55;4.38;;;;;;;-0.95;81.49;99482.34;5011287;28;20045;-40
2022/11/24 04:58:12;;;;;;;8.35;4.60;;;;;;;-1.01;80.95;99488.25;4987209;28;20045;-43
2022/11/24 05:00:38;;;;;;;9.10;4.55;;;;;;;-1.09;80.55;99479.66;5025222;28;20148;-42
2022/11/24 05:03:04;;;;;;;7.70;4.20;;;;;;;-1.26;79.95;99458.28;5029541;28;20037;-40
2022/11/24 05:05:31;;;;;;;6.45;3.78;;;;;;;-1.07;79.53;99500.97;5028792;28;20045;-40
2022/11/24 05:08:00;;;;;;;9.85;4.53;;;;;;;-1.26;79.12;99481.22;5008565;28;20045;-39
2022/11/24 05:10:35;;;;;;;9.48;4.57;;;;;;;-1.11;79.02;99501.78;5011376;28;20049;-40
2022/11/24 05:13:04;;;;;;;9.57;4.70;;;;;;;-1.04;78.73;99506.06;5002436;28;20045;-40
2022/11/24 05:15:30;;;;;;;8.65;4.50;;;;;;;-0.95;78.70;99515.53;5034889;28;20048;-40
2022/11/24 05:17:56;;;;;;;11.85;5.13;;;;;;;-0.92;78.51;99518.94;5028516;28;20133;-41
2022/11/24 05:20:23;;;;;;;11.77;5.18;;;;;;;-1.07;78.32;99492.44;5029429;28;20045;-41
2022/11/24 05:22:49;;;;;;;12.40;5.35;;;;;;;-1.07;78.22;99490.75;5026159;28;20041;-41
2022/11/24 05:25:15;;;;;;;12.82;5.63;;;;;;;-0.91;78.30;99528.31;5015187;28;20084;-42
2022/11/24 05:27:41;;;;;;;12.65;5.45;;;;;;;-0.94;78.17;99528.28;5025128;28;20065;-43
2022/11/24 05:30:08;;;;;;;14.27;5.50;;;;;;;-0.93;78.15;99529.13;5021410;28;20052;-41
2022/11/24 05:32:34;;;;;;;13.32;5.47;;;;;;;-0.92;77.73;99534.25;5029641;28;20045;-41
2022/11/24 05:35:01;;;;;;;12.93;6.07;;;;;;;-0.89;77.76;99541.09;5018139;28;20041;-41
2022/11/24 05:37:30;;;;;;;12.60;5.07;;;;;;;-1.01;77.40;99510.38;5020542;28;20041;-40
2022/11/24 05:39:56;;;;;;;10.60;5.07;;;;;;;-0.82;77.85;99544.53;5002733;28;20034;-41
2022/11/24 05:42:39;;;;;;;11.07;5.18;;;;;;;-0.88;77.71;99536.00;5003322;28;20537;-40
2022/11/24 05:45:08;;;;;;;12.70;5.68;;;;;;;-0.90;77.55;99542.78;5028280;28;20079;-40
2022/11/24 05:47:34;;;;;;;12.80;6.10;;;;;;;-1.08;77.29;99522.19;5033916;28;20034;-40
2022/11/24 05:50:00;;;;;;;12.13;6.40;;;;;;;-0.93;77.29;99547.84;4992007;28;20429;-40
2022/11/24 05:52:26;;;;;;;13.75;5.85;;;;;;;-0.92;76.90;99553.81;5017772;28;20520;-40
2022/11/24 05:54:52;;;;;;;12.55;5.70;;;;;;;-1.05;76.85;99534.13;5007462;28;20084;-40
2022/11/24 05:57:17;;;;;;;27.27;7.25;;;;;;;-0.88;76.57;99566.59;5022549;28;20041;-41
2022/11/24 05:59:44;;;;;;;9.73;4.85;;;;;;;-0.85;76.45;99560.69;5029235;28;20060;-41
2022/11/24 06:02:09;;;;;;;14.23;5.32;;;;;;;-0.83;75.94;99568.34;5010400;28;20037;-40
2022/11/24 06:04:36;;;;;;;10.75;5.18;;;;;;;-0.80;75.59;99561.59;5027479;28;20041;-41
2022/11/24 06:07:02;;;;;;;12.40;5.68;;;;;;;-0.82;75.72;99575.16;5027686;28;20151;-40
2022/11/24 06:09:28;;;;;;;11.45;5.63;;;;;;;-0.79;75.53;99580.31;5028172;28;20068;-41
2022/11/24 06:11:54;;;;;;;11.30;5.32;;;;;;;-0.80;75.31;99581.16;5026727;28;20520;-40
2022/11/24 06:14:20;;;;;;;10.35;5.05;;;;;;;-0.78;74.73;99589.66;5010246;28;20078;-41
2022/11/24 06:16:46;;;;;;;13.43;5.20;;;;;;;-0.82;74.84;99577.72;5027953;28;20048;-41
2022/11/24 06:19:12;;;;;;;13.05;5.28;;;;;;;-0.82;74.43;99588.78;5027704;28;20056;-40
2022/11/24 06:21:38;;;;;;;10.88;5.38;;;;;;;-0.85;74.02;99583.66;5028946;28;20041;-43
2022/11/24 06:24:04;;;;;;;10.18;4.88;;;;;;;-0.82;73.96;99598.13;5010866;28;20505;-41
2022/11/24 06:26:30;;;;;;;11.80;5.40;;;;;;;-0.84;73.55;99598.13;5028633;28;20037;-42
2022/11/24 06:28:56;;;;;;;12.90;6.05;;;;;;;-0.89;73.70;99603.16;5027637;28;20041;-40
2022/11/24 06:31:22;;;;;;;12.73;5.63;;;;;;;-0.88;73.16;99607.44;5028943;28;20479;-41
2022/11/24 06:33:48;;;;;;;11.57;5.70;;;;;;;-1.01;73.10;99584.34;5028991;28;20049;-43
2022/11/24 06:36:14;;;;;;;12.63;5.80;;;;;;;-0.87;73.21;99606.59;5023726;28;20083;-40
2022/11/24 06:38:40;;;;;;;14.48;6.18;;;;;;;-0.81;73.23;99612.59;5015978;28;20049;-41
2022/11/24 06:41:12;;;;;;;14.75;6.50;;;;;;;-0.77;73.01;99612.66;5009947;28;20394;-40
2022/11/24 06:43:38;;;;;;;12.27;6.53;;;;;;;-0.73;73.07;99613.56;5008874;28;20049;-41
2022/11/24 06:46:04;;;;;;;13.13;5.97;;;;;;;-0.71;73.09;99612.72;5010474;28;20044;-39
2022/11/24 06:48:30;;;;;;;15.68;6.63;;;;;;;-0.97;72.99;99561.44;5028059;28;20091;-41
2022/11/24 06:51:00;;;;;;;16.77;6.95;;;;;;;-0.57;72.90;99615.38;5042355;28;20048;-42
2022/11/24 06:53:30;;;;;;;14.68;6.57;;;;;;;-0.50;72.60;99612.91;5025504;28;20038;-40
2022/11/24 06:55:58;;;;;;;14.27;6.45;;;;;;;-0.38;72.25;99613.84;5023823;28;20076;-43
2022/11/24 06:58:24;;;;;;;12.45;6.57;;;;;;;-0.27;72.31;99620.78;5017016;28;20485;-41
2022/11/24 07:00:50;;;;;;;16.23;7.80;;;;;;;-0.20;72.37;99619.09;5020676;28;20555;-40
2022/11/24 07:03:18;;;;;;;15.82;6.95;;;;;;;-0.38;72.02;99584.06;5021089;28;20038;-41
2022/11/24 07:05:45;;;;;;;13.80;6.65;;;;;;;-0.13;71.96;99623.41;5030091;28;20049;-40
2022/11/24 07:08:10;;;;;;;14.68;7.43;;;;;;;-0.14;71.28;99624.25;5015978;28;20041;-41
2022/11/24 07:10:36;;;;;;;13.57;6.03;;;;;;;-0.16;71.45;99624.25;5026998;28;20088;-40
2022/11/24 07:13:05;;;;;;;15.82;6.82;;;;;;;-0.16;71.42;99631.91;5027377;28;20049;-40
2022/11/24 07:15:31;;;;;;;15.50;7.10;;;;;;;-0.17;71.05;99635.31;5008207;28;20641;-40
2022/11/24 07:17:57;;;;;;;12.68;6.28;;;;;;;-0.22;71.14;99633.56;5009634;28;20046;-41
2022/11/24 07:20:22;;;;;;;13.10;6.65;;;;;;;-0.19;70.88;99636.13;5030898;28;20041;-40
2022/11/24 07:22:48;;;;;;;13.18;6.78;;;;;;;-0.15;70.60;99631.06;5030517;28;20095;-45
2022/11/24 07:25:16;;;;;;;14.27;7.30;;;;;;;-0.07;69.92;99624.34;5030688;28;20041;-42
2022/11/24 07:27:42;;;;;;;11.80;5.65;;;;;;;-0.23;69.62;99576.53;5028686;28;20483;-40
2022/11/24 07:30:08;;;;;;;14.15;6.13;;;;;;;0.04;69.42;99608.22;5019681;28;20132;-41
2022/11/24 07:32:34;;;;;;;12.68;6.28;;;;;;;0.11;68.65;99602.28;5021204;28;20041;-42
2022/11/24 07:35:00;;;;;;;18.13;7.25;;;;;;;0.27;68.81;99615.16;5021029;28;20057;-42
2022/11/24 07:37:25;;;;;;;15.38;6.47;;;;;;;0.31;68.64;99613.50;5025312;28;20037;-42
2022/11/24 07:39:51;;;;;;;14.77;7.28;;;;;;;0.32;68.47;99626.25;5020400;28;20048;-40
2022/11/24 07:42:17;;;;;;;14.43;6.95;;;;;;;0.24;68.39;99602.38;5023059;28;20052;-41
2022/11/24 07:44:43;;;;;;;18.33;7.47;;;;;;;0.18;68.29;99589.56;5028889;28;20136;-41
2022/11/24 07:47:09;;;;;;;15.57;6.38;;;;;;;0.29;68.34;99616.03;5030493;28;20148;-42
2022/11/24 07:49:35;;;;;;;17.35;8.05;;;;;;;0.22;68.33;99626.19;5020420;28;20033;-41
2022/11/24 07:52:01;;;;;;;17.50;7.82;;;;;;;0.17;68.79;99621.06;5021100;28;20060;-41
2022/11/24 07:54:27;;;;;;;15.45;7.40;;;;;;;0.15;68.52;99616.81;5022089;28;20041;-42
2022/11/24 07:56:52;;;;;;;19.02;9.93;;;;;;;0.12;68.51;99625.28;5026110;28;20056;-39
2022/11/24 07:59:18;;;;;;;16.65;8.15;;;;;;;0.10;68.37;99619.34;5028335;28;20042;-41
2022/11/24 08:01:44;;;;;;;18.00;7.47;;;;;;;0.07;68.40;99619.31;5026019;28;20095;-42
2022/11/24 08:04:10;;;;;;;18.73;7.47;;;;;;;-0.26;68.51;99575.66;5022701;28;20129;-42
2022/11/24 08:06:36;;;;;;;19.00;7.95;;;;;;;-0.15;68.43;99597.84;5023691;28;20136;-42
2022/11/24 08:09:02;;;;;;;12.45;6.40;;;;;;;0.03;68.30;99630.34;4996324;28;20045;-40
2022/11/24 08:11:30;;;;;;;13.43;7.30;;;;;;;0.01;68.38;99632.03;5026420;28;20054;-41
2022/11/24 08:13:56;;;;;;;14.02;7.28;;;;;;;0.00;68.58;99641.41;5037673;28;20198;-42
2022/11/24 08:16:22;;;;;;;16.00;7.65;;;;;;;0.01;68.44;99639.69;5040112;28;20614;-41
2022/11/24 08:18:50;;;;;;;18.30;7.40;;;;;;;0.02;68.40;99649.06;5028831;28;20049;-41
2022/11/24 08:21:16;;;;;;;13.43;6.93;;;;;;;-0.04;68.52;99642.22;5019101;28;20057;-42
2022/11/24 08:23:42;;;;;;;18.95;7.43;;;;;;;-0.02;68.44;99655.03;5018937;28;20045;-42
2022/11/24 08:26:12;;;;;;;17.25;7.93;;;;;;;-0.21;68.30;99627.63;5022286;28;20038;-41
2022/11/24 08:28:38;;;;;;;17.73;8.70;;;;;;;-0.01;68.40;99660.16;5019390;28;20037;-40
2022/11/24 08:31:08;;;;;;;12.20;6.38;;;;;;;-0.22;68.34;99639.53;5024176;28;20041;-41
2022/11/24 08:33:35;;;;;;;18.40;7.63;;;;;;;-0.12;68.35;99671.97;5024377;28;20037;-42
2022/11/24 08:36:04;;;;;;;14.70;7.47;;;;;;;-0.25;68.42;99654.81;5004691;28;20416;-40
2022/11/24 08:38:31;;;;;;;16.25;6.57;;;;;;;-0.12;68.41;99678.78;5019358;28;20509;-41
2022/11/24 08:41:01;;;;;;;17.13;7.18;;;;;;;-0.26;68.74;99652.28;5025661;28;20110;-44
2022/11/24 08:43:27;;;;;;;14.52;6.80;;;;;;;-0.10;68.32;99684.75;5019483;28;20045;-43
2022/11/24 08:45:53;;;;;;;14.57;7.38;;;;;;;-0.10;68.26;99677.09;5042890;28;20080;-43
2022/11/24 08:48:20;;;;;;;16.42;7.03;;;;;;;-0.09;68.22;99696.69;5028536;28;20501;-42
2022/11/24 08:50:46;;;;;;;13.93;6.97;;;;;;;-0.25;68.22;99671.84;5029420;28;20048;-41
2022/11/24 08:53:12;;;;;;;16.38;7.32;;;;;;;-0.28;68.31;99679.50;5030265;28;20053;-41
2022/11/24 08:55:37;;;;;;;17.15;7.68;;;;;;;-0.30;68.47;99674.38;5029100;28;20044;-42
2022/11/24 08:58:03;;;;;;;14.55;7.22;;;;;;;-0.14;68.68;99700.91;5044849;28;20509;-41
2022/11/24 09:00:29;;;;;;;17.70;8.45;;;;;;;-0.16;68.45;99711.09;5028346;28;20063;-41
2022/11/24 09:02:56;;;;;;;14.00;7.15;;;;;;;-0.16;68.30;99712.81;5029926;28;20132;-41
2022/11/24 09:05:22;;;;;;;16.17;8.25;;;;;;;-0.47;68.39;99673.34;5026221;28;20073;-43
2022/11/24 09:07:48;;;;;;;20.45;8.40;;;;;;;-0.20;68.36;99716.16;5029205;28;20588;-41
2022/11/24 09:10:13;;;;;;;18.88;7.50;;;;;;;-0.21;68.49;99709.38;5029041;28;20417;-41
2022/11/24 09:12:39;;;;;;;14.73;7.80;;;;;;;-0.19;68.65;99728.97;5028603;28;20400;-40
2022/11/24 09:15:06;;;;;;;17.70;8.07;;;;;;;-0.32;68.42;99701.63;5012526;28;20037;-41
2022/11/24 09:17:32;;;;;;;16.48;8.05;;;;;;;-0.34;68.43;99693.06;5028299;28;20080;-42
2022/11/24 09:19:58;;;;;;;21.23;9.95;;;;;;;-0.20;68.79;99717.03;5028964;28;20194;-42
2022/11/24 09:22:24;;;;;;;16.48;8.25;;;;;;;-0.21;68.46;99722.16;5027593;28;20049;-41
2022/11/24 09:24:50;;;;;;;17.27;7.47;;;;;;;-0.30;68.68;99705.03;5025277;28;20505;-40
2022/11/24 09:27:15;;;;;;;16.70;7.55;;;;;;;-0.17;68.62;99724.75;5026828;28;20507;-41
2022/11/24 09:29:41;;;;;;;19.77;8.05;;;;;;;-0.15;68.35;99719.63;5027562;28;20417;-42
2022/11/24 09:32:07;;;;;;;19.88;8.60;;;;;;;-0.19;68.33;99715.34;5010669;28;20523;-43
2022/11/24 09:34:33;;;;;;;19.70;8.20;;;;;;;-0.18;68.37;99719.59;5009537;28;20181;-40
2022/11/24 09:37:00;;;;;;;19.35;9.88;;;;;;;-0.19;68.44;99711.09;5028537;28;20048;-43
2022/11/24 09:39:25;;;;;;;22.80;9.23;;;;;;;-0.29;68.16;99688.84;5028249;28;20034;-42
2022/11/24 09:42:13;;;;;;;19.48;8.27;;;;;;;-0.10;68.11;99712.84;5026593;28;20527;-40
2022/11/24 09:44:59;;;;;;;19.23;7.05;;;;;;;-0.11;68.04;99716.28;5024977;28;20050;-41
2022/11/24 09:47:47;;;;;;;12.57;6.72;;;;;;;-0.13;67.93;99715.41;5027974;28;20509;-42
2022/11/24 09:50:23;;;;;;;19.00;7.68;;;;;;;-0.14;67.51;99721.34;5011727;28;20132;-41
2022/11/24 09:53:25;;;;;;;16.50;7.35;;;;;;;-0.20;67.84;99718.72;5028415;28;20487;-42
2022/11/24 09:55:58;;;;;;;17.20;6.53;;;;;;;-0.24;67.51;99722.09;5029127;28;20130;-40
2022/11/24 09:58:33;;;;;;;18.00;8.02;;;;;;;-0.40;67.43;99692.16;5026895;28;20044;-41
2022/11/24 10:01:00;;;;;;;14.10;6.65;;;;;;;-0.26;67.83;99722.06;5011076;28;20038;-40
2022/11/24 10:03:32;;;;;;;18.40;6.95;;;;;;;-0.25;67.79;99720.38;5027195;28;20154;-42
2022/11/24 10:05:58;;;;;;;15.65;7.57;;;;;;;-0.20;68.00;99713.63;5027811;28;20037;-41
2022/11/24 10:08:53;;;;;;;17.05;7.05;;;;;;;-0.18;67.94;99720.47;5013681;28;20045;-40
2022/11/24 10:11:47;;;;;;;15.30;7.38;;;;;;;-0.20;67.87;99719.59;5010879;28;20041;-42
2022/11/24 10:14:18;;;;;;;15.65;6.88;;;;;;;-0.20;67.75;99721.28;5009165;28;20042;-41
2022/11/24 10:17:01;;;;;;;17.73;8.05;;;;;;;-0.27;68.23;99728.06;5018803;28;20080;-41
2022/11/24 10:19:34;;;;;;;21.25;8.02;;;;;;;-0.32;68.18;99727.16;5014662;28;20100;-41
2022/11/24 10:22:03;;;;;;;15.38;7.88;;;;;;;-0.35;67.99;99722.00;5024907;28;20042;-40
2022/11/24 10:24:53;;;;;;;17.03;7.20;;;;;;;-0.34;68.04;99738.19;5019020;28;20064;-43
2022/11/24 10:27:33;;;;;;;16.40;7.75;;;;;;;-0.35;67.95;99733.91;5034639;28;20415;-63
2022/11/24 10:29:59;;;;;;;15.43;7.40;;;;;;;-0.39;68.31;99734.72;5007942;28;20129;-63
2022/11/24 10:32:36;;;;;;;18.63;7.85;;;;;;;-0.53;68.24;99721.81;5009046;28;20096;-42
2022/11/24 10:35:25;;;;;;;16.90;7.47;;;;;;;-0.39;68.29;99743.25;5010500;28;20053;-41
2022/11/24 10:37:56;;;;;;;17.00;7.82;;;;;;;-0.34;68.34;99739.03;5025975;28;20049;-41
2022/11/24 10:40:38;;;;;;;16.83;7.68;;;;;;;-0.35;68.14;99739.88;5027188;28;20046;-41
2022/11/24 10:43:09;;;;;;;16.58;6.63;;;;;;;-0.36;68.31;99745.81;5009226;28;20053;-43
2022/11/24 10:45:38;;;;;;;18.40;7.75;;;;;;;-0.34;68.16;99749.25;5031972;28;20432;-42
2022/11/24 10:48:07;;;;;;;20.73;9.13;;;;;;;-0.54;68.65;99708.19;5019374;28;20449;-41
2022/11/24 10:50:36;;;;;;;;;;;;;;;-0.24;68.23;99752.75;5017798;28;20038;-40
2022/11/24 10:53:08;;;;;;;23.52;9.27;;;;;;;-0.26;68.50;99755.28;5018330;28;20420;-42
2022/11/24 10:55:56;;;;;;;18.58;8.77;;;;;;;-0.24;68.26;99765.53;5023405;28;20148;-40
2022/11/24 10:58:35;;;;;;;22.48;9.27;;;;;;;-0.21;68.52;99756.19;5038751;28;20522;-40
2022/11/24 11:01:19;;;;;;;21.15;9.18;;;;;;;-0.18;68.31;99752.81;5004935;28;20509;-40
2022/11/24 11:04:11;;;;;;;20.23;8.70;;;;;;;-0.16;68.36;99759.63;5029772;28;20045;-43
2022/11/24 11:06:37;;;;;;;20.95;8.45;;;;;;;-0.16;68.43;99757.09;5002334;28;20045;-41
2022/11/24 11:09:06;;;;;;;20.85;8.60;;;;;;;-0.20;68.58;99749.38;5022033;28;20042;-41
2022/11/24 11:11:33;;;;;;;26.00;10.18;;;;;;;-0.35;68.71;99716.88;5004240;28;20487;-41
2022/11/24 11:14:05;;;;;;;20.88;9.20;;;;;;;-0.17;68.98;99752.00;5027804;28;20528;-41
2022/11/24 11:16:38;;;;;;;19.75;8.85;;;;;;;-0.25;68.91;99753.59;5007502;28;20538;-41
2022/11/24 11:19:25;;;;;;;20.95;9.52;;;;;;;-0.25;68.93;99763.81;5030093;28;20049;-42
2022/11/24 11:22:10;;;;;;;34.10;14.07;;;;;;;-0.24;69.12;99768.94;5024393;28;20050;-41
2022/11/24 11:24:37;;;;;;;27.25;11.05;;;;;;;-0.25;69.06;99772.34;5023460;28;20065;-41
2022/11/24 11:27:08;;;;;;;26.20;11.75;;;;;;;-0.43;69.22;99742.38;5013144;28;20068;-43
2022/11/24 11:29:34;;;;;;;23.55;10.35;;;;;;;-0.30;69.02;99770.56;5029230;28;20508;-42
2022/11/24 11:32:03;;;;;;;22.83;9.63;;;;;;;-0.32;69.01;99775.69;5013568;28;20136;-41
2022/11/24 11:34:34;;;;;;;22.83;9.70;;;;;;;-0.52;69.38;99747.34;5024493;28;20041;-41